Time;durP1;ratioP1;P1;durP2;ratioP2;P2;SDS_P1;SDS_P2;PMS_P1;PMS_P2;Temp;Humidity;BMP_temperature;BMP_pressure;BME280_temperature;BME280_humidity;BME280_pressure;Samples;Min_cycle;Max_cycle;Signal;HPM_P1;HPM_P2
2024/02/15 00:00:04;;;;;;;13.10;8.45;;;12.30;99.90;;;;;;4884015;29;20433;-80
2024/02/15 00:02:33;;;;;;;14.30;8.65;;;12.30;99.90;;;;;;4899760;29;20405;-79
2024/02/15 00:05:01;;;;;;;15.40;8.95;;;12.30;99.90;;;;;;4899165;29;20048;-79
2024/02/15 00:07:28;;;;;;;15.50;9.10;;;12.30;99.90;;;;;;4899384;29;20052;-78
2024/02/15 00:09:55;;;;;;;15.25;9.68;;;12.30;99.90;;;;;;4899066;29;20281;-79
2024/02/15 00:12:22;;;;;;;13.48;8.40;;;12.30;99.90;;;;;;4883908;29;20470;-79
2024/02/15 00:14:49;;;;;;;15.27;10.07;;;12.30;99.90;;;;;;4880585;29;20068;-79
2024/02/15 00:17:18;;;;;;;16.95;10.30;;;12.30;99.90;;;;;;4878947;29;20059;-79
2024/02/15 00:19:46;;;;;;;16.90;10.68;;;12.30;99.90;;;;;;4880651;29;20132;-80
2024/02/15 00:22:13;;;;;;;17.70;11.80;;;12.30;99.90;;;;;;4850066;29;20105;-79
2024/02/15 00:24:41;;;;;;;18.88;11.15;;;12.30;99.90;;;;;;4880402;29;20052;-80
2024/02/15 00:27:10;;;;;;;17.92;11.30;;;12.30;99.90;;;;;;4890813;29;20075;-79
2024/02/15 00:29:40;;;;;;;15.40;9.50;;;12.30;99.90;;;;;;4880737;29;20517;-80
2024/02/15 00:32:07;;;;;;;14.57;8.82;;;12.30;99.90;;;;;;4880244;29;20106;-80
2024/02/15 00:34:35;;;;;;;13.93;8.75;;;12.30;99.90;;;;;;4864977;29;20049;-80
2024/02/15 00:37:04;;;;;;;16.20;8.63;;;12.30;99.90;;;;;;4895533;29;20108;-80
2024/02/15 00:39:31;;;;;;;15.18;10.00;;;12.30;99.90;;;;;;4883702;29;20048;-80
2024/02/15 00:42:01;;;;;;;13.95;8.77;;;12.30;99.90;;;;;;4880400;29;20447;-80
2024/02/15 00:44:29;;;;;;;13.52;8.23;;;12.30;99.90;;;;;;4889609;29;20151;-82
2024/02/15 00:46:56;;;;;;;14.07;8.23;;;12.30;99.90;;;;;;4883207;29;20064;-80
2024/02/15 00:49:23;;;;;;;11.88;7.30;;;12.30;99.90;;;;;;4897786;29;20144;-82
2024/02/15 00:51:53;;;;;;;12.77;7.80;;;12.40;99.90;;;;;;4883116;29;20044;-81
2024/02/15 00:54:20;;;;;;;14.85;8.43;;;12.30;99.90;;;;;;4882646;29;20119;-80
2024/02/15 00:56:47;;;;;;;12.57;7.55;;;12.30;99.90;;;;;;4899997;29;20040;-80
2024/02/15 00:59:14;;;;;;;14.40;8.90;;;12.30;99.90;;;;;;4879576;29;20052;-80
2024/02/15 01:01:41;;;;;;;12.88;7.40;;;12.40;99.90;;;;;;4879388;29;20045;-80
2024/02/15 01:04:08;;;;;;;14.68;8.52;;;12.30;99.90;;;;;;4880494;29;20049;-80
2024/02/15 01:06:35;;;;;;;18.25;10.10;;;12.40;99.90;;;;;;4877317;29;20124;-80
2024/02/15 01:09:03;;;;;;;22.00;11.00;;;12.40;99.90;;;;;;4907183;29;20048;-80
2024/02/15 01:11:35;;;;;;;14.50;9.18;;;12.30;99.90;;;;;;4899014;29;20036;-80
2024/02/15 01:14:02;;;;;;;;;;;12.30;99.90;;;;;;4903682;29;20055;-80
2024/02/15 01:16:30;;;;;;;13.32;8.05;;;12.30;99.90;;;;;;4884919;29;19923;-80
2024/02/15 01:18:57;;;;;;;15.20;8.13;;;12.30;99.90;;;;;;4896908;29;20090;-80
2024/02/15 01:21:25;;;;;;;12.38;8.05;;;12.30;99.90;;;;;;4900549;29;20104;-80
2024/02/15 01:23:54;;;;;;;12.98;7.93;;;12.40;99.90;;;;;;4883143;29;20064;-80
2024/02/15 01:26:23;;;;;;;13.90;8.43;;;12.40;99.90;;;;;;4883127;29;20067;-80
2024/02/15 01:28:50;;;;;;;11.63;7.72;;;12.30;99.90;;;;;;4882722;29;20092;-80
2024/02/15 01:31:17;;;;;;;12.43;7.60;;;12.30;99.90;;;;;;4867127;29;20053;-80
2024/02/15 01:33:48;;;;;;;11.38;7.22;;;12.40;99.90;;;;;;4898337;29;20051;-81
2024/02/15 01:36:16;;;;;;;12.20;7.95;;;12.40;99.90;;;;;;4898561;29;20064;-81
2024/02/15 01:38:44;;;;;;;17.75;11.15;;;12.40;99.90;;;;;;4882881;29;20064;-80
2024/02/15 01:41:11;;;;;;;15.88;8.15;;;12.40;99.90;;;;;;4898180;29;20056;-81
2024/02/15 01:43:44;;;;;;;12.95;7.88;;;12.40;99.90;;;;;;4882308;29;20104;-80
2024/02/15 01:46:11;;;;;;;10.02;6.57;;;12.40;99.90;;;;;;4898875;29;20405;-80
2024/02/15 01:48:41;;;;;;;10.68;6.72;;;12.40;99.90;;;;;;4897667;29;20048;-80
2024/02/15 01:51:11;;;;;;;11.30;6.30;;;12.40;99.90;;;;;;4898901;29;20048;-81
2024/02/15 01:53:40;;;;;;;9.18;5.65;;;12.40;99.90;;;;;;4898970;29;20036;-81
2024/02/15 01:56:08;;;;;;;9.23;5.47;;;12.40;99.90;;;;;;4882037;29;20052;-81
2024/02/15 01:58:36;;;;;;;9.52;5.97;;;12.40;99.90;;;;;;4897879;29;20052;-81
2024/02/15 02:01:04;;;;;;;10.40;6.60;;;12.40;99.90;;;;;;4897386;29;20049;-81
2024/02/15 02:03:33;;;;;;;10.18;6.18;;;12.40;99.90;;;;;;4897550;29;20080;-81
2024/02/15 02:06:00;;;;;;;9.30;6.32;;;12.40;99.90;;;;;;4897023;29;20051;-80
2024/02/15 02:08:28;;;;;;;11.35;5.60;;;12.40;99.90;;;;;;4882007;29;20145;-81
2024/02/15 02:10:55;;;;;;;9.65;5.00;;;12.40;99.90;;;;;;4898908;29;20044;-81
2024/02/15 02:13:23;;;;;;;8.98;4.90;;;12.40;99.90;;;;;;4897929;29;20119;-81
2024/02/15 02:15:51;;;;;;;9.23;5.57;;;12.40;99.90;;;;;;4863930;29;20045;-81
2024/02/15 02:18:18;;;;;;;6.93;4.07;;;12.40;99.90;;;;;;4863859;29;20076;-81
2024/02/15 02:20:45;;;;;;;8.57;4.90;;;12.40;99.90;;;;;;4877328;29;20128;-81
2024/02/15 02:23:18;;;;;;;8.73;5.18;;;12.50;99.90;;;;;;4897489;29;20055;-81
2024/02/15 02:25:49;;;;;;;9.73;5.43;;;12.50;99.90;;;;;;4881596;29;20140;-81
2024/02/15 02:28:16;;;;;;;7.88;4.50;;;12.50;99.90;;;;;;4897614;29;20107;-81
2024/02/15 02:30:45;;;;;;;5.10;2.88;;;12.40;99.90;;;;;;4897291;29;20048;-81
2024/02/15 02:33:20;;;;;;;9.65;3.92;;;12.40;99.90;;;;;;4897245;29;20100;-81
2024/02/15 02:35:48;;;;;;;5.75;3.28;;;12.40;99.90;;;;;;4897540;29;20477;-81
2024/02/15 02:38:15;;;;;;;7.25;3.03;;;12.40;99.90;;;;;;4882164;29;20128;-81
2024/02/15 02:40:42;;;;;;;7.25;3.40;;;12.40;99.90;;;;;;4881359;29;20055;-81
2024/02/15 02:43:10;;;;;;;6.18;2.55;;;12.40;99.90;;;;;;4897634;29;20044;-81
2024/02/15 02:45:37;;;;;;;6.25;2.95;;;12.40;99.90;;;;;;4866797;29;20096;-81
2024/02/15 02:48:04;;;;;;;5.90;2.92;;;12.40;99.90;;;;;;4896805;29;20045;-81
2024/02/15 02:50:34;;;;;;;5.28;2.72;;;12.40;99.90;;;;;;4882109;29;20048;-81
2024/02/15 02:53:02;;;;;;;5.32;2.75;;;12.40;99.90;;;;;;4878532;29;20048;-82
2024/02/15 02:55:30;;;;;;;6.95;3.63;;;12.40;99.90;;;;;;4895848;29;20056;-81
2024/02/15 02:57:57;;;;;;;6.35;3.05;;;12.30;99.90;;;;;;4898256;29;20083;-81
2024/02/15 03:00:24;;;;;;;5.53;3.00;;;12.40;99.90;;;;;;4881616;29;20043;-82
2024/02/15 03:02:51;;;;;;;4.75;2.83;;;12.30;99.90;;;;;;4882059;29;20051;-82
2024/02/15 03:05:20;;;;;;;5.63;2.60;;;12.30;99.90;;;;;;4881861;29;20064;-81
2024/02/15 03:07:48;;;;;;;5.57;2.42;;;12.30;99.90;;;;;;4897208;29;20576;-81
2024/02/15 03:10:16;;;;;;;4.97;2.53;;;12.30;99.90;;;;;;4866002;29;20056;-82
2024/02/15 03:12:46;;;;;;;5.88;2.70;;;12.30;99.90;;;;;;4883477;29;20048;-82
2024/02/15 03:15:15;;;;;;;6.90;3.60;;;12.30;99.90;;;;;;4884823;29;20072;-81
2024/02/15 03:17:46;;;;;;;4.95;2.72;;;12.30;99.90;;;;;;4900414;29;20075;-82
2024/02/15 03:20:26;;;;;;;5.82;2.55;;;12.30;99.90;;;;;;4900742;29;20044;-82
2024/02/15 03:22:53;;;;;;;8.18;3.58;;;12.20;99.90;;;;;;4885194;29;20056;-82
2024/02/15 03:25:23;;;;;;;5.93;2.97;;;12.20;99.90;;;;;;4900786;29;20071;-82
2024/02/15 03:27:52;;;;;;;6.43;3.30;;;12.20;99.90;;;;;;4901491;29;20064;-82
2024/02/15 03:30:20;;;;;;;5.93;2.90;;;12.20;99.90;;;;;;4900496;29;20055;-82
2024/02/15 03:32:48;;;;;;;7.95;2.75;;;12.10;99.90;;;;;;4884934;29;20446;-82
2024/02/15 03:35:16;;;;;;;5.78;2.80;;;12.20;99.90;;;;;;4900363;29;20045;-82
2024/02/15 03:37:44;;;;;;;8.18;3.47;;;12.10;99.90;;;;;;4885139;29;20100;-82
2024/02/15 03:40:12;;;;;;;6.70;2.58;;;12.10;99.90;;;;;;4900322;29;20081;-82
2024/02/15 03:42:39;;;;;;;4.60;2.53;;;12.10;99.90;;;;;;4884720;29;20855;-82
2024/02/15 03:45:06;;;;;;;4.22;2.20;;;12.10;99.90;;;;;;4884568;29;20049;-82
2024/02/15 03:47:38;;;;;;;5.80;2.72;;;12.10;99.90;;;;;;4899592;29;20052;-81
2024/02/15 03:50:09;;;;;;;4.43;1.85;;;12.10;99.90;;;;;;4884683;29;20723;-81
2024/02/15 03:52:38;;;;;;;3.37;2.00;;;12.10;99.90;;;;;;4884239;29;20143;-82
2024/02/15 03:55:07;;;;;;;3.85;2.20;;;12.10;99.90;;;;;;4881145;29;20413;-82
2024/02/15 03:57:40;;;;;;;3.85;2.00;;;12.10;99.90;;;;;;4865419;29;20391;-82
2024/02/15 04:00:10;;;;;;;3.35;1.67;;;12.10;99.90;;;;;;4878059;29;20117;-82
2024/02/15 04:02:40;;;;;;;3.35;1.50;;;12.10;99.90;;;;;;4884281;29;20063;-82
2024/02/15 04:05:10;;;;;;;3.55;1.77;;;12.10;99.90;;;;;;4900886;29;20049;-82
2024/02/15 04:07:38;;;;;;;3.45;1.67;;;12.00;99.90;;;;;;4899326;29;20063;-82
2024/02/15 04:10:06;;;;;;;4.30;1.92;;;12.00;99.90;;;;;;4899697;29;20037;-82
2024/02/15 04:12:33;;;;;;;5.93;3.00;;;12.00;99.90;;;;;;4899438;29;20143;-82
2024/02/15 04:15:05;;;;;;;4.55;2.60;;;12.00;99.90;;;;;;4884387;29;20051;-82
2024/02/15 04:17:34;;;;;;;5.68;2.50;;;11.90;99.90;;;;;;4884006;29;20045;-82
2024/02/15 04:20:06;;;;;;;4.40;1.85;;;11.90;99.90;;;;;;4883668;29;20151;-82
2024/02/15 04:22:36;;;;;;;5.50;2.30;;;11.90;99.90;;;;;;4899418;29;20044;-82
2024/02/15 04:25:10;;;;;;;5.05;2.20;;;11.80;99.90;;;;;;4899315;29;20052;-82
2024/02/15 04:27:38;;;;;;;3.90;1.80;;;11.80;99.90;;;;;;4868949;29;20063;-82
2024/02/15 04:30:10;;;;;;;5.50;2.55;;;11.80;99.90;;;;;;4883917;29;20063;-82
2024/02/15 04:32:38;;;;;;;5.32;3.20;;;11.80;99.90;;;;;;4899228;29;20064;-82
2024/02/15 04:35:09;;;;;;;4.05;2.00;;;11.80;99.90;;;;;;4899177;29;20063;-82
2024/02/15 04:37:40;;;;;;;6.90;2.67;;;11.80;99.90;;;;;;4899236;29;20048;-82
2024/02/15 04:40:10;;;;;;;5.15;2.20;;;11.90;99.90;;;;;;4883049;29;20104;-82
2024/02/15 04:42:39;;;;;;;5.53;2.40;;;11.80;99.90;;;;;;4868014;29;20087;-82
2024/02/15 04:45:10;;;;;;;4.20;2.08;;;11.80;99.90;;;;;;4898881;29;20119;-82
2024/02/15 04:47:40;;;;;;;4.03;2.03;;;11.80;99.90;;;;;;4900042;29;20071;-83
2024/02/15 04:50:08;;;;;;;6.03;1.85;;;11.80;99.90;;;;;;4898966;29;20044;-82
2024/02/15 04:52:36;;;;;;;4.15;2.00;;;11.80;99.90;;;;;;4899087;29;20064;-82
2024/02/15 04:55:05;;;;;;;9.00;2.50;;;11.80;99.90;;;;;;4880626;29;20109;-82
2024/02/15 04:57:34;;;;;;;5.60;2.42;;;11.80;99.90;;;;;;4895915;29;20053;-82
2024/02/15 05:00:09;;;;;;;4.07;1.90;;;11.90;99.90;;;;;;4883660;29;20052;-82
2024/02/15 05:02:40;;;;;;;3.60;1.52;;;11.90;99.90;;;;;;4883318;29;20159;-82
2024/02/15 05:05:08;;;;;;;6.65;2.60;;;11.90;99.90;;;;;;4898507;29;20044;-82
2024/02/15 05:07:39;;;;;;;5.00;1.98;;;11.90;99.90;;;;;;4883213;29;20104;-83
2024/02/15 05:10:08;;;;;;;4.10;1.60;;;11.90;99.90;;;;;;4899406;29;20080;-83
2024/02/15 05:12:38;;;;;;;5.70;1.95;;;11.90;99.90;;;;;;4907910;29;20048;-83
2024/02/15 05:15:12;;;;;;;8.40;2.13;;;11.90;99.90;;;;;;4910972;29;20073;-83
2024/02/15 05:17:40;;;;;;;5.10;2.50;;;12.00;99.90;;;;;;4915081;29;20055;-83
2024/02/15 05:20:13;;;;;;;6.40;2.88;;;12.00;99.90;;;;;;4899782;29;20048;-84
2024/02/15 05:22:47;;;;;;;7.38;3.25;;;12.00;99.90;;;;;;4899138;29;20040;-83
2024/02/15 05:25:22;;;;;;;6.97;2.65;;;12.00;99.90;;;;;;4899130;29;20055;-84
2024/02/15 05:27:53;;;;;;;5.07;2.60;;;11.90;99.90;;;;;;4869415;29;20041;-84
2024/02/15 05:30:22;;;;;;;8.55;2.33;;;11.90;99.90;;;;;;4899199;29;20040;-83
2024/02/15 05:32:49;;;;;;;6.22;2.28;;;12.00;99.90;;;;;;4897874;29;20059;-84
2024/02/15 05:35:17;;;;;;;3.83;1.80;;;12.00;99.90;;;;;;4882188;29;20139;-83
2024/02/15 05:37:46;;;;;;;5.28;2.08;;;12.00;99.90;;;;;;4867268;29;20044;-83
2024/02/15 05:40:17;;;;;;;4.03;2.00;;;12.00;99.90;;;;;;4882520;29;20143;-83
2024/02/15 05:42:45;;;;;;;5.07;2.25;;;12.00;99.90;;;;;;4882326;29;20055;-84
2024/02/15 05:45:25;;;;;;;5.00;2.50;;;12.00;99.90;;;;;;4898267;29;20040;-84
2024/02/15 05:47:52;;;;;;;7.93;2.25;;;12.00;99.90;;;;;;4881890;29;20060;-82
2024/02/15 05:50:21;;;;;;;7.80;2.92;;;11.90;99.90;;;;;;4898527;29;20131;-82
2024/02/15 05:52:48;;;;;;;4.63;1.95;;;12.00;99.90;;;;;;4882226;29;20056;-82
2024/02/15 05:55:16;;;;;;;5.30;1.95;;;12.00;99.90;;;;;;4882016;29;20052;-82
2024/02/15 05:57:44;;;;;;;5.45;2.40;;;12.00;99.90;;;;;;4897189;29;20045;-82
2024/02/15 06:00:12;;;;;;;5.75;2.10;;;12.00;99.90;;;;;;4882517;29;20139;-83
2024/02/15 06:02:49;;;;;;;6.22;2.60;;;12.00;99.90;;;;;;4883566;29;20143;-82
2024/02/15 06:05:17;;;;;;;3.03;1.77;;;12.00;99.90;;;;;;4897272;29;20064;-83
2024/02/15 06:07:45;;;;;;;3.72;1.83;;;12.00;99.90;;;;;;4897394;29;20502;-82
2024/02/15 06:10:14;;;;;;;5.00;2.05;;;12.00;99.90;;;;;;4897437;29;20048;-83
2024/02/15 06:12:42;;;;;;;2.92;1.60;;;12.00;99.90;;;;;;4897575;29;20044;-83
2024/02/15 06:15:14;;;;;;;3.53;1.77;;;11.90;99.90;;;;;;4897242;29;20091;-83
2024/02/15 06:17:44;;;;;;;3.50;1.38;;;11.90;99.90;;;;;;4882768;29;20063;-83
2024/02/15 06:20:19;;;;;;;3.88;1.60;;;11.90;99.90;;;;;;4881937;29;20057;-82
2024/02/15 06:22:48;;;;;;;4.13;1.90;;;11.90;99.90;;;;;;4897280;29;20045;-82
2024/02/15 06:25:20;;;;;;;3.88;1.00;;;11.90;99.90;;;;;;4881904;29;20053;-82
2024/02/15 06:27:51;;;;;;;4.45;1.30;;;11.90;99.90;;;;;;4897462;29;20056;-82
2024/02/15 06:41:38;;;;;;;5.45;2.60;;;11.90;99.90;;;;;;4880598;29;20120;-82
2024/02/15 06:44:08;;;;;;;6.93;2.88;;;11.90;99.90;;;;;;4878579;29;20049;-82
2024/02/15 06:46:37;;;;;;;;;;;11.90;99.90;;;;;;4877907;29;20108;-82
2024/02/15 06:49:04;;;;;;;5.15;3.10;;;11.90;99.90;;;;;;4901149;29;19924;-82
2024/02/15 06:51:32;;;;;;;5.97;3.05;;;11.90;99.90;;;;;;4901090;29;20070;-82
2024/02/15 06:53:59;;;;;;;5.40;2.78;;;11.90;99.90;;;;;;4902148;29;20500;-82
2024/02/15 06:56:26;;;;;;;6.22;2.72;;;11.90;99.90;;;;;;4885458;29;20062;-82
2024/02/15 06:58:54;;;;;;;4.38;2.25;;;11.90;99.90;;;;;;4886441;29;20171;-82
2024/02/15 07:01:25;;;;;;;5.82;2.80;;;11.90;99.90;;;;;;4884808;29;20128;-82
2024/02/15 07:03:52;;;;;;;14.23;3.72;;;12.00;99.90;;;;;;4885424;29;20108;-82
2024/02/15 07:06:21;;;;;;;6.32;3.38;;;12.00;99.90;;;;;;4870689;29;20597;-82
2024/02/15 07:08:50;;;;;;;6.50;3.78;;;12.00;99.90;;;;;;4900867;29;20414;-82
2024/02/15 07:11:17;;;;;;;6.97;2.95;;;12.00;99.90;;;;;;4885262;29;20127;-82
2024/02/15 07:13:44;;;;;;;8.40;3.22;;;12.00;99.90;;;;;;4884878;29;20047;-82
2024/02/15 07:16:11;;;;;;;6.63;2.92;;;12.00;99.90;;;;;;4884842;29;20076;-82
2024/02/15 07:18:38;;;;;;;4.43;2.08;;;12.00;99.90;;;;;;4900323;29;20100;-82
2024/02/15 07:21:11;;;;;;;4.22;1.83;;;12.00;99.90;;;;;;4900247;29;20051;-82
2024/02/15 07:23:38;;;;;;;3.33;2.05;;;12.00;99.90;;;;;;4900231;29;20100;-83
2024/02/15 07:26:08;;;;;;;5.50;1.95;;;12.10;99.90;;;;;;4869205;29;20049;-83
2024/02/15 07:28:35;;;;;;;4.07;1.55;;;12.10;99.90;;;;;;4886651;29;20059;-83
2024/02/15 07:31:02;;;;;;;3.03;1.48;;;12.10;99.90;;;;;;4882177;29;20398;-83
2024/02/15 07:33:29;;;;;;;4.60;1.95;;;12.10;99.90;;;;;;4885459;29;20036;-83
2024/02/15 07:35:56;;;;;;;2.63;1.25;;;12.10;99.90;;;;;;4900700;29;20048;-83
2024/02/15 07:38:25;;;;;;;2.38;1.23;;;12.10;99.90;;;;;;4900359;29;20454;-83
2024/02/15 07:40:55;;;;;;;4.38;2.17;;;12.10;99.90;;;;;;4900024;29;20382;-83
2024/02/15 07:43:23;;;;;;;2.78;1.67;;;12.10;99.90;;;;;;4869160;29;20032;-82
2024/02/15 07:45:53;;;;;;;3.53;1.67;;;12.10;99.90;;;;;;4884510;29;20057;-83
2024/02/15 07:48:20;;;;;;;2.53;1.50;;;12.10;99.90;;;;;;4899890;29;20417;-83
2024/02/15 07:50:48;;;;;;;3.72;1.38;;;12.10;99.90;;;;;;4866454;29;20053;-83
2024/02/15 07:53:15;;;;;;;4.38;1.63;;;12.10;99.90;;;;;;4850395;29;20075;-84
2024/02/15 07:55:43;;;;;;;4.97;1.67;;;12.10;99.90;;;;;;4881605;29;20060;-84
2024/02/15 07:58:12;;;;;;;3.92;1.77;;;12.10;99.90;;;;;;4875922;29;20045;-84
2024/02/15 08:00:39;;;;;;;3.28;1.67;;;12.10;99.90;;;;;;4884017;29;20056;-83
2024/02/15 08:03:07;;;;;;;4.72;1.65;;;12.10;99.90;;;;;;4884384;29;20048;-83
2024/02/15 08:05:36;;;;;;;5.97;2.15;;;12.10;99.90;;;;;;4883874;29;20053;-83
2024/02/15 08:08:04;;;;;;;6.57;2.50;;;12.10;99.90;;;;;;4899089;29;20502;-78
2024/02/15 08:10:33;;;;;;;3.78;1.95;;;12.20;99.90;;;;;;4868510;29;20048;-78
2024/02/15 08:13:00;;;;;;;2.63;1.50;;;12.20;99.90;;;;;;4883864;29;20041;-78
2024/02/15 08:15:27;;;;;;;2.80;1.55;;;12.20;99.90;;;;;;4880357;29;20057;-78
2024/02/15 08:17:55;;;;;;;2.35;1.45;;;12.20;99.90;;;;;;4862828;29;20049;-77
2024/02/15 08:20:22;;;;;;;3.50;2.40;;;12.20;99.90;;;;;;4875603;29;20498;-78
2024/02/15 08:22:51;;;;;;;5.32;2.92;;;12.20;99.90;;;;;;4883366;29;20048;-90
2024/02/15 08:25:18;;;;;;;4.22;2.08;;;12.20;99.90;;;;;;4867981;29;20049;-77
2024/02/15 08:27:51;;;;;;;4.93;2.72;;;12.20;99.90;;;;;;4883244;29;20049;-77
2024/02/15 08:30:19;;;;;;;4.35;2.70;;;12.20;99.90;;;;;;4897978;29;20568;-77
2024/02/15 08:32:53;;;;;;;4.03;2.47;;;12.20;99.90;;;;;;4883660;29;20044;-77
2024/02/15 08:35:20;;;;;;;3.40;2.08;;;12.20;99.90;;;;;;4880289;29;20128;-75
2024/02/15 08:37:50;;;;;;;3.90;2.50;;;12.30;99.90;;;;;;4890465;29;20416;-76
2024/02/15 08:40:19;;;;;;;3.72;2.17;;;12.30;99.90;;;;;;4899858;29;20503;-76
2024/02/15 08:42:47;;;;;;;3.65;2.45;;;12.30;99.90;;;;;;4899781;29;20388;-76
2024/02/15 08:45:14;;;;;;;3.05;1.65;;;12.30;99.90;;;;;;4898283;29;20052;-75
2024/02/15 08:47:42;;;;;;;3.38;1.65;;;12.30;99.90;;;;;;4899214;29;20132;-75
2024/02/15 08:50:11;;;;;;;2.97;2.00;;;12.30;99.90;;;;;;4895692;29;20045;-76
2024/02/15 08:52:39;;;;;;;3.22;1.77;;;12.30;99.90;;;;;;4883235;29;20077;-78
2024/02/15 08:55:09;;;;;;;3.72;1.20;;;12.30;99.90;;;;;;4864327;29;20045;-80
2024/02/15 08:57:37;;;;;;;2.67;1.10;;;12.30;99.90;;;;;;4886830;29;20036;-79
2024/02/15 09:00:13;;;;;;;2.63;0.93;;;12.30;99.90;;;;;;4898346;29;20087;-79
2024/02/15 09:02:44;;;;;;;3.40;1.23;;;12.30;99.90;;;;;;4865656;29;20037;-80
2024/02/15 09:05:15;;;;;;;3.90;1.40;;;12.30;99.90;;;;;;4891408;29;20553;-80
2024/02/15 09:07:43;;;;;;;2.58;1.00;;;12.30;99.90;;;;;;4879838;29;20451;-78
2024/02/15 09:10:11;;;;;;;2.22;0.95;;;12.30;99.90;;;;;;4878842;29;20048;-79
2024/02/15 09:12:39;;;;;;;1.80;0.93;;;12.30;99.90;;;;;;4867984;29;20434;-78
2024/02/15 09:15:08;;;;;;;2.72;1.50;;;12.30;99.90;;;;;;4899644;29;20048;-79
2024/02/15 09:17:38;;;;;;;2.92;1.48;;;12.40;99.90;;;;;;4904774;29;20041;-78
2024/02/15 09:20:20;;;;;;;2.08;0.80;;;12.30;99.90;;;;;;4894356;29;20053;-77
2024/02/15 09:22:51;;;;;;;2.28;0.82;;;12.30;99.90;;;;;;4897067;29;20037;-80
2024/02/15 09:25:19;;;;;;;2.05;0.98;;;12.40;99.90;;;;;;4916958;29;20405;-78
2024/02/15 09:27:46;;;;;;;1.67;0.68;;;12.30;99.90;;;;;;4873594;29;20052;-80
2024/02/15 09:30:14;;;;;;;1.83;0.70;;;12.30;99.90;;;;;;4897207;29;20099;-80
2024/02/15 09:32:43;;;;;;;1.65;0.98;;;12.30;99.90;;;;;;4898251;29;20166;-80
2024/02/15 09:35:14;;;;;;;1.60;0.68;;;12.40;99.90;;;;;;4898966;29;20624;-80
2024/02/15 09:37:48;;;;;;;2.55;0.85;;;12.30;99.90;;;;;;4899002;29;20398;-79
2024/02/15 09:40:18;;;;;;;2.70;0.77;;;12.30;99.90;;;;;;4897742;29;20123;-78
2024/02/15 09:42:46;;;;;;;1.63;0.85;;;12.40;99.90;;;;;;4897748;29;20438;-78
2024/02/15 09:45:18;;;;;;;3.33;1.15;;;12.40;99.90;;;;;;4898409;29;20116;-78
2024/02/15 09:47:46;;;;;;;1.95;0.70;;;12.40;99.90;;;;;;4897309;29;20064;-78
2024/02/15 09:50:15;;;;;;;2.47;1.17;;;12.40;99.90;;;;;;4898183;29;20047;-78
2024/02/15 09:52:56;;;;;;;2.75;0.80;;;12.40;99.90;;;;;;4897375;29;20113;-79
2024/02/15 09:55:25;;;;;;;1.98;0.90;;;12.40;99.90;;;;;;4898439;29;20063;-78
2024/02/15 09:57:52;;;;;;;1.73;0.85;;;12.50;99.90;;;;;;4897568;29;20048;-79
2024/02/15 10:00:20;;;;;;;1.55;0.80;;;12.40;99.90;;;;;;4881815;29;20048;-77
2024/02/15 10:02:50;;;;;;;1.63;0.70;;;12.50;99.90;;;;;;4897505;29;20462;-77
2024/02/15 10:05:19;;;;;;;2.78;0.77;;;12.50;99.90;;;;;;4881581;29;20498;-77
2024/02/15 10:07:46;;;;;;;2.65;0.82;;;12.50;99.90;;;;;;4881766;29;20048;-78
2024/02/15 10:10:21;;;;;;;1.98;1.00;;;12.50;99.90;;;;;;4898179;29;20131;-79
2024/02/15 10:12:55;;;;;;;3.33;0.85;;;12.50;99.90;;;;;;4879144;29;20061;-83
2024/02/15 10:15:34;;;;;;;5.63;1.88;;;12.50;99.90;;;;;;4868518;29;20045;-83
2024/02/15 10:18:11;;;;;;;3.20;1.60;;;12.40;99.90;;;;;;4892651;29;20045;-84
2024/02/15 10:20:44;;;;;;;4.47;1.40;;;12.40;99.90;;;;;;4878394;29;20064;-83
2024/02/15 10:23:17;;;;;;;5.05;0.93;;;12.40;99.90;;;;;;4886474;29;20492;-82
2024/02/15 10:25:45;;;;;;;2.15;1.05;;;12.40;99.90;;;;;;4898572;29;20041;-82
2024/02/15 10:28:15;;;;;;;3.13;0.93;;;12.40;99.90;;;;;;4879003;29;20481;-82
2024/02/15 10:30:45;;;;;;;3.55;1.17;;;12.50;99.90;;;;;;4878554;29;20481;-83
2024/02/15 10:33:26;;;;;;;2.50;1.10;;;12.50;99.90;;;;;;4877704;29;20057;-83
2024/02/15 10:36:09;;;;;;;3.35;1.00;;;12.50;99.90;;;;;;4867294;29;20776;-83
2024/02/15 10:38:37;;;;;;;2.15;1.02;;;12.50;99.90;;;;;;4898237;29;20179;-82
2024/02/15 10:41:05;;;;;;;2.10;0.73;;;12.50;99.90;;;;;;4896959;29;20048;-82
2024/02/15 10:43:38;;;;;;;2.10;0.82;;;12.50;99.90;;;;;;4896869;29;20402;-82
2024/02/15 10:46:10;;;;;;;2.55;1.23;;;12.50;99.90;;;;;;4879186;29;20413;-82
2024/02/15 10:48:38;;;;;;;3.25;0.82;;;12.50;99.90;;;;;;4895023;29;20573;-80
2024/02/15 10:51:10;;;;;;;2.03;0.80;;;12.60;99.90;;;;;;4897386;29;20486;-79
2024/02/15 10:53:44;;;;;;;3.47;1.05;;;12.60;99.90;;;;;;4898003;29;20044;-84
2024/02/15 10:56:24;;;;;;;;;;;;;;;;;;;;;
2024/02/15 10:59:26;;;;;;;3.58;0.88;;;12.70;99.90;;;;;;4897348;29;20053;-81
2024/02/15 11:01:59;;;;;;;2.92;1.02;;;12.70;99.90;;;;;;4896825;29;20048;-80
2024/02/15 11:04:32;;;;;;;2.65;1.23;;;12.70;99.90;;;;;;4893687;29;20056;-84
2024/02/15 11:07:06;;;;;;;5.47;1.48;;;12.70;99.90;;;;;;4866463;29;20041;-83
2024/02/15 11:09:36;;;;;;;3.13;1.48;;;12.70;99.90;;;;;;4879220;29;20103;-81
2024/02/15 11:12:03;;;;;;;3.55;2.13;;;12.70;99.90;;;;;;4878185;29;20049;-81
2024/02/15 11:14:32;;;;;;;3.58;1.48;;;12.70;99.90;;;;;;4861038;29;20048;-81
2024/02/15 11:17:06;;;;;;;3.28;1.35;;;12.70;99.90;;;;;;4873233;29;20123;-77
2024/02/15 11:19:39;;;;;;;2.97;1.20;;;12.80;99.90;;;;;;4897449;29;20060;-81
2024/02/15 11:22:11;;;;;;;3.47;1.50;;;12.80;99.90;;;;;;4880810;29;20048;-81
2024/02/15 11:24:49;;;;;;;3.70;1.42;;;12.80;99.90;;;;;;4880704;29;20044;-81
2024/02/15 11:27:38;;;;;;;3.80;1.42;;;12.80;99.90;;;;;;4880537;29;20067;-80
2024/02/15 11:30:12;;;;;;;4.25;1.20;;;12.90;99.90;;;;;;4896173;29;20045;-80
2024/02/15 11:32:51;;;;;;;3.03;1.60;;;12.90;99.90;;;;;;4879097;29;20076;-80
2024/02/15 11:35:20;;;;;;;3.03;1.48;;;13.00;99.90;;;;;;4899080;29;20458;-81
2024/02/15 11:38:13;;;;;;;3.50;1.63;;;13.00;99.90;;;;;;4900458;29;20056;-81
2024/02/15 11:40:41;;;;;;;4.65;1.40;;;13.00;99.90;;;;;;4901916;29;20052;-81
2024/02/15 11:43:10;;;;;;;3.88;1.70;;;13.00;99.90;;;;;;4899569;29;20049;-84
2024/02/15 11:45:54;;;;;;;;;;;;;;;;;;;;;
2024/02/15 11:48:28;;;;;;;3.20;1.50;;;13.10;99.90;;;;;;4900309;29;20111;-77
2024/02/15 11:50:55;;;;;;;2.65;1.42;;;13.10;99.90;;;;;;4899064;29;20478;-74
2024/02/15 11:53:25;;;;;;;3.55;1.08;;;13.10;99.90;;;;;;4880651;29;20387;-78
2024/02/15 11:56:00;;;;;;;2.75;0.93;;;13.20;99.90;;;;;;4867850;29;20451;-75
2024/02/15 11:58:41;;;;;;;4.38;2.00;;;13.20;99.90;;;;;;4898432;29;20041;-75
2024/02/15 12:20:35;;;;;;;2.13;1.05;;;13.90;99.90;;;;;;4898749;29;20045;-77
2024/02/15 12:23:02;;;;;;;3.95;1.08;;;14.00;99.90;;;;;;4898690;29;20088;-77
2024/02/15 12:25:38;;;;;;;4.78;1.30;;;14.10;99.90;;;;;;4865188;29;20080;-77
2024/02/15 12:28:07;;;;;;;3.38;1.40;;;14.10;99.90;;;;;;4898438;29;20454;-77
2024/02/15 12:30:40;;;;;;;4.13;1.20;;;14.20;99.90;;;;;;4883144;29;20060;-77
2024/02/15 12:33:19;;;;;;;3.55;1.50;;;14.20;99.90;;;;;;4898591;29;20415;-78
2024/02/15 12:35:48;;;;;;;2.75;1.42;;;14.20;99.90;;;;;;4889508;29;20120;-77
2024/02/15 12:38:18;;;;;;;4.93;1.50;;;14.20;99.90;;;;;;4865234;29;20057;-73
2024/02/15 12:40:47;;;;;;;3.35;1.15;;;14.20;99.90;;;;;;4868472;29;20858;-73
2024/02/15 12:43:18;;;;;;;3.60;1.80;;;14.20;99.90;;;;;;4882795;29;20048;-80
2024/02/15 12:45:45;;;;;;;2.95;1.08;;;14.30;99.90;;;;;;4882201;29;20071;-76
2024/02/15 12:48:18;;;;;;;4.13;1.50;;;14.40;99.90;;;;;;4898269;29;20120;-77
2024/02/15 12:50:46;;;;;;;2.50;1.13;;;14.40;99.90;;;;;;4898297;29;20067;-73
2024/02/15 12:53:21;;;;;;;2.20;1.05;;;14.50;99.90;;;;;;4879730;29;20045;-79
2024/02/15 12:55:55;;;;;;;4.63;1.00;;;14.50;99.90;;;;;;4897654;29;20047;-80
2024/02/15 12:58:24;;;;;;;2.10;1.13;;;14.60;99.90;;;;;;4867409;29;20159;-76
2024/02/15 13:00:58;;;;;;;3.05;1.20;;;14.70;99.90;;;;;;4898237;29;20044;-77
2024/02/15 13:03:36;;;;;;;2.72;1.00;;;14.70;99.90;;;;;;4899408;29;20092;-76
2024/02/15 13:06:04;;;;;;;2.28;0.88;;;14.80;99.90;;;;;;4882654;29;20394;-76
2024/02/15 13:08:37;;;;;;;2.95;1.00;;;14.80;99.90;;;;;;4880174;29;20101;-76
2024/02/15 13:11:04;;;;;;;3.03;1.10;;;14.90;99.90;;;;;;4882196;29;20072;-77
2024/02/15 13:13:34;;;;;;;4.40;1.35;;;14.90;99.90;;;;;;4873709;29;20053;-78
2024/02/15 13:16:01;;;;;;;3.15;1.30;;;14.90;99.90;;;;;;4879481;29;20049;-76
2024/02/15 13:18:29;;;;;;;3.50;1.00;;;14.90;99.90;;;;;;4863504;29;20517;-76
2024/02/15 13:20:57;;;;;;;3.88;1.42;;;14.90;99.90;;;;;;4866124;29;20573;-76
2024/02/15 13:23:26;;;;;;;3.78;1.23;;;14.90;99.90;;;;;;4881384;29;20383;-76
2024/02/15 13:25:56;;;;;;;5.68;1.55;;;14.80;99.90;;;;;;4898648;29;20060;-77
2024/02/15 13:28:24;;;;;;;2.65;0.88;;;14.80;99.90;;;;;;4894221;29;20056;-76
2024/02/15 13:30:54;;;;;;;5.43;0.90;;;14.70;99.90;;;;;;4883500;29;20084;-76